createdAt,value
2019-05-10T00:02:01.035Z,78.62
2019-05-10T00:06:26.654Z,78.78
2019-05-10T00:10:33.776Z,78.84
2019-05-10T00:14:48.362Z,78.57
2019-05-10T00:18:56.393Z,78.84
2019-05-10T00:23:04.525Z,79.13
2019-05-10T00:27:12.523Z,79.68
2019-05-10T00:31:20.626Z,80.10
2019-05-10T00:35:28.864Z,80.36
2019-05-10T00:39:36.583Z,81.02
2019-05-10T00:43:44.808Z,81.20
2019-05-10T00:47:52.933Z,81.39
2019-05-10T00:52:00.514Z,80.93
2019-05-10T00:56:08.843Z,80.41
2019-05-10T01:00:18.391Z,80.62
2019-05-10T01:04:26.416Z,79.89
2019-05-10T01:08:34.528Z,79.93
2019-05-10T01:12:42.724Z,78.96
2019-05-10T01:16:50.546Z,78.86
2019-05-10T01:20:59.193Z,80.22
2019-05-10T01:25:07.234Z,80.90
2019-05-10T01:29:15.829Z,80.74
2019-05-10T01:33:24.229Z,79.92
2019-05-10T01:37:31.892Z,79.92
2019-05-10T01:41:40.478Z,80.16
2019-05-10T01:45:48.397Z,80.11
2019-05-10T01:49:56.101Z,80.34
2019-05-10T01:54:04.741Z,81.07
2019-05-10T01:58:12.756Z,79.76
2019-05-10T02:02:20.440Z,80.79
2019-05-10T02:06:28.674Z,81.35
2019-05-10T02:10:36.371Z,81.15
2019-05-10T02:14:43.991Z,81.24
2019-05-10T02:18:52.619Z,80.33
2019-05-10T02:23:00.833Z,80.47
2019-05-10T02:27:09.163Z,80.70
2019-05-10T02:31:21.472Z,80.16
2019-05-10T02:35:27.438Z,82.03
2019-05-10T02:39:35.354Z,82.32
2019-05-10T02:43:43.671Z,81.20
2019-05-10T02:47:51.501Z,81.45
2019-05-10T02:51:59.805Z,82.52
2019-05-10T02:56:07.720Z,81.81
2019-05-10T03:00:15.964Z,80.77
2019-05-10T03:04:26.192Z,80.80
2019-05-10T03:08:49.738Z,80.89
2019-05-10T03:13:00.158Z,80.63
2019-05-10T03:17:09.886Z,79.89
2019-05-10T03:21:19.481Z,79.68
2019-05-10T03:25:27.983Z,79.59
2019-05-10T03:29:36.220Z,79.70
2019-05-10T03:33:43.945Z,79.34
2019-05-10T03:37:52.087Z,79.33
2019-05-10T03:41:59.952Z,79.33
2019-05-10T03:46:07.565Z,78.54
2019-05-10T03:50:15.457Z,77.21
2019-05-10T03:54:23.318Z,78.14
2019-05-10T03:58:31.185Z,78.67
2019-05-10T04:02:39.627Z,78.83
2019-05-10T04:06:47.621Z,78.99
2019-05-10T04:10:55.440Z,78.92
2019-05-10T04:15:03.749Z,78.14
2019-05-10T04:19:11.349Z,77.35
2019-05-10T04:23:20.915Z,77.49
2019-05-10T04:27:32.864Z,77.53
2019-05-10T04:31:39.217Z,78.26
2019-05-10T04:35:47.435Z,76.39
2019-05-10T04:39:55.628Z,74.19
2019-05-10T04:44:03.768Z,74.68
2019-05-10T04:48:11.555Z,74.46
2019-05-10T04:52:19.287Z,74.62
2019-05-10T04:56:26.872Z,74.88
2019-05-10T05:00:35.102Z,73.98
2019-05-10T05:04:43.013Z,74.16
2019-05-10T05:08:50.828Z,73.74
2019-05-10T05:12:59.157Z,72.76
2019-05-10T05:17:07.144Z,71.57
2019-05-10T05:21:15.291Z,72.41
2019-05-10T05:25:23.087Z,71.82
2019-05-10T05:29:30.984Z,71.29
2019-05-10T05:33:39.015Z,71.27
2019-05-10T05:37:47.140Z,72.50
2019-05-10T05:41:56.694Z,70.43
2019-05-10T05:46:05.104Z,69.85
2019-05-10T05:50:13.884Z,70.81
2019-05-10T05:54:22.674Z,71.22
2019-05-10T05:58:30.705Z,70.21
2019-05-10T06:02:45.088Z,69.45
2019-05-10T06:06:53.637Z,71.46
2019-05-10T06:10:59.979Z,70.59
2019-05-10T06:15:08.379Z,70.87
2019-05-10T06:19:20.419Z,70.50
2019-05-10T06:23:29.139Z,67.51
2019-05-10T06:27:41.025Z,70.24
2019-05-10T06:31:45.577Z,70.62
2019-05-10T06:35:54.273Z,69.65
2019-05-10T06:40:02.258Z,70.55
2019-05-10T06:44:10.163Z,71.77
2019-05-10T06:48:25.807Z,70.63
2019-05-10T06:52:29.835Z,71.75
2019-05-10T06:56:39.084Z,71.18
2019-05-10T07:00:47.511Z,69.10
2019-05-10T07:04:55.228Z,68.70
2019-05-10T07:09:05.979Z,66.82
2019-05-10T07:13:14.044Z,66.77
2019-05-10T07:17:22.020Z,67.38
2019-05-10T07:21:29.882Z,65.18
2019-05-10T07:25:43.476Z,65.18
2019-05-10T07:29:48.117Z,64.82
2019-05-10T07:33:56.369Z,63.35
2019-05-10T07:38:04.118Z,65.15
2019-05-10T07:42:13.167Z,65.06
2019-05-10T07:46:21.414Z,63.37
2019-05-10T07:50:29.107Z,63.82
2019-05-10T07:54:44.903Z,63.22
2019-05-10T07:58:47.067Z,64.08
2019-05-10T08:03:02.412Z,63.79
2019-05-10T08:07:09.810Z,65.14
2019-05-10T08:11:19.175Z,65.40
2019-05-10T08:15:30.549Z,64.57
2019-05-10T08:19:38.935Z,64.56
2019-05-10T08:23:47.257Z,61.64
2019-05-10T08:27:55.454Z,60.88
2019-05-10T08:32:03.624Z,60.88
2019-05-10T08:36:12.132Z,58.89
2019-05-10T08:40:26.518Z,56.53
2019-05-10T08:44:32.709Z,59.35
2019-05-10T08:48:46.537Z,60.48
2019-05-10T08:52:49.804Z,57.75
2019-05-10T08:57:01.006Z,59.55
2019-05-10T09:01:20.456Z,59.88
2019-05-10T09:05:20.967Z,59.52
2019-05-10T09:09:26.878Z,59.55
2019-05-10T09:13:41.024Z,60.66
2019-05-10T09:17:44.458Z,59.98
2019-05-10T09:21:54.988Z,60.71
2019-05-10T09:26:12.007Z,61.00
2019-05-10T09:30:14.234Z,59.34
2019-05-10T09:34:25.948Z,58.43
2019-05-10T09:38:34.709Z,57.89
2019-05-10T09:42:43.648Z,58.04
2019-05-10T09:46:52.580Z,56.35
2019-05-10T09:51:03.761Z,54.34
2019-05-10T09:55:14.688Z,46.81
2019-05-10T09:59:20.073Z,46.47
2019-05-10T10:03:30.012Z,47.55
2019-05-10T10:07:37.512Z,47.21
2019-05-10T10:11:57.257Z,46.82
2019-05-10T10:15:57.995Z,43.79
2019-05-10T10:20:08.167Z,42.13
2019-05-10T10:24:20.072Z,46.83
2019-05-10T10:28:25.490Z,45.21
2019-05-10T10:32:34.914Z,45.12
2019-05-10T10:36:44.178Z,45.37
2019-05-10T10:40:52.006Z,47.64
2019-05-10T10:44:59.520Z,49.57
2019-05-10T10:49:07.207Z,51.33
2019-05-10T10:53:15.020Z,53.62
2019-05-10T10:57:23.216Z,57.32
2019-05-10T11:01:46.120Z,60.85
2019-05-10T11:05:41.203Z,60.21
2019-05-10T11:09:53.663Z,53.43
2019-05-10T11:14:06.934Z,55.46
2019-05-10T11:18:11.067Z,53.22
2019-05-10T11:22:21.409Z,51.04
2019-05-10T11:26:32.867Z,40.77
2019-05-10T11:30:38.714Z,39.27
2019-05-10T11:34:47.027Z,44.05
2019-05-10T11:38:58.524Z,46.73
2019-05-10T11:43:04.195Z,50.86
2019-05-10T11:47:23.263Z,52.68
2019-05-10T11:51:21.579Z,58.48
2019-05-10T11:55:30.959Z,63.21
2019-05-10T11:59:41.551Z,67.14
2019-05-10T12:03:49.418Z,70.95
2019-05-10T12:07:57.551Z,75.05
2019-05-10T12:12:05.326Z,71.52
2019-05-10T12:16:16.785Z,71.61
2019-05-10T12:20:38.534Z,65.01
2019-05-10T12:26:05.677Z,64.03
2019-05-10T12:28:43.343Z,60.01
2019-05-10T12:32:56.210Z,57.10
2019-05-10T12:37:03.843Z,57.56
2019-05-10T12:41:10.540Z,53.36
2019-05-10T12:45:22.910Z,57.06
2019-05-10T12:49:27.889Z,54.09
2019-05-10T12:53:36.668Z,56.34
2019-05-10T12:57:45.764Z,57.03
2019-05-10T13:01:53.461Z,54.46
2019-05-10T13:06:03.169Z,52.77
2019-05-10T13:10:11.893Z,53.40
2019-05-10T13:14:19.556Z,55.25
2019-05-10T13:18:48.235Z,55.33
2019-05-10T13:22:39.406Z,54.32
2019-05-10T13:26:47.028Z,54.31
2019-05-10T13:30:59.813Z,52.72
2019-05-10T13:35:07.009Z,50.20
2019-05-10T13:39:19.024Z,52.14
2019-05-10T13:43:26.898Z,48.74
2019-05-10T13:47:34.439Z,49.34
2019-05-10T13:51:42.337Z,50.77
2019-05-10T13:55:50.909Z,49.96
2019-05-10T14:00:02.254Z,51.57
2019-05-10T14:04:10.192Z,50.97
2019-05-10T14:08:18.110Z,51.39
2019-05-10T14:12:26.311Z,51.30
2019-05-10T14:16:35.183Z,53.52
2019-05-10T14:20:43.584Z,52.94
2019-05-10T14:24:53.460Z,53.21
2019-05-10T14:29:01.355Z,54.56
2019-05-10T14:33:14.629Z,54.56
2019-05-10T14:37:19.718Z,54.94
2019-05-10T14:41:28.669Z,56.69
2019-05-10T14:45:36.696Z,56.98
2019-05-10T14:49:46.797Z,57.91
2019-05-10T14:53:58.143Z,63.20
2019-05-10T14:58:05.140Z,64.94
2019-05-10T15:02:16.992Z,65.59
2019-05-10T15:06:23.835Z,66.48
2019-05-10T15:10:33.129Z,68.13
2019-05-10T15:14:41.111Z,67.37
2019-05-10T15:18:49.341Z,68.06
2019-05-10T15:22:56.954Z,67.90
2019-05-10T15:27:04.965Z,68.51
2019-05-10T15:31:13.092Z,68.58
2019-05-10T15:35:22.135Z,68.08
2019-05-10T15:39:30.580Z,67.12
2019-05-10T15:43:38.878Z,65.51
2019-05-10T15:47:51.366Z,66.11
2019-05-10T15:52:15.151Z,65.72
2019-05-10T15:56:06.409Z,67.46
2019-05-10T16:00:14.652Z,67.22
2019-05-10T16:04:22.634Z,67.86
2019-05-10T16:08:31.927Z,67.38
2019-05-10T16:12:43.077Z,67.23
2019-05-10T16:16:49.645Z,67.58
2019-05-10T16:20:57.398Z,67.42
2019-05-10T16:25:07.014Z,68.06
2019-05-10T16:29:15.140Z,68.24
2019-05-10T16:33:23.212Z,68.32
2019-05-10T16:37:30.854Z,70.20
2019-05-10T16:41:39.156Z,69.72
2019-05-10T16:45:46.989Z,67.92
2019-05-10T16:49:55.203Z,67.53
2019-05-10T16:54:02.867Z,68.38
2019-05-10T16:58:15.005Z,69.13
2019-05-10T17:02:20.618Z,70.37
2019-05-10T17:06:28.975Z,71.27
2019-05-10T17:10:36.632Z,71.82
2019-05-10T17:14:44.508Z,72.47
2019-05-10T17:18:55.305Z,72.68
2019-05-10T17:23:08.719Z,73.06
2019-05-10T17:27:13.381Z,73.73
2019-05-10T17:31:21.545Z,74.67
2019-05-10T17:35:29.915Z,75.38
2019-05-10T17:39:37.703Z,75.79
2019-05-10T17:43:47.071Z,75.79
2019-05-10T17:47:54.935Z,75.16
2019-05-10T17:52:03.202Z,75.56
2019-05-10T17:56:11.578Z,76.27
2019-05-10T18:00:19.857Z,76.58
2019-05-10T18:04:28.126Z,77.31
2019-05-10T18:08:35.969Z,77.67
2019-05-10T18:12:44.001Z,77.47
2019-05-10T18:16:51.691Z,76.75
2019-05-10T18:21:01.499Z,76.96
2019-05-10T18:25:19.525Z,75.95
2019-05-10T18:29:20.368Z,75.87
2019-05-10T18:33:29.623Z,75.80
2019-05-10T18:37:37.922Z,75.34
2019-05-10T18:41:46.492Z,76.31
2019-05-10T18:45:54.859Z,76.65
2019-05-10T18:50:02.487Z,76.60
2019-05-10T18:54:10.387Z,75.99
2019-05-10T18:58:23.208Z,76.21
2019-05-10T19:02:28.666Z,76.48
2019-05-10T19:06:36.684Z,76.95
2019-05-10T19:10:44.496Z,77.00
2019-05-10T19:14:52.091Z,77.17
2019-05-10T19:19:01.983Z,77.37
2019-05-10T19:23:13.126Z,77.86
2019-05-10T19:27:19.836Z,77.96
2019-05-10T19:31:31.542Z,77.96
2019-05-10T19:35:37.905Z,77.76
2019-05-10T19:39:46.235Z,77.11
2019-05-10T19:43:56.047Z,76.71
2019-05-10T19:48:05.839Z,76.41
2019-05-10T19:52:14.124Z,76.62
2019-05-10T19:56:22.183Z,75.79
2019-05-10T20:00:30.112Z,75.87
2019-05-10T20:04:38.115Z,75.82
2019-05-10T20:08:46.643Z,75.14
2019-05-10T20:12:54.387Z,75.89
2019-05-10T20:17:02.257Z,75.38
2019-05-10T20:21:10.286Z,76.22
2019-05-10T20:25:18.191Z,76.74
2019-05-10T20:29:25.995Z,76.72
2019-05-10T20:33:33.714Z,77.17
2019-05-10T20:37:41.738Z,77.23
2019-05-10T20:41:49.842Z,77.04
2019-05-10T20:45:57.547Z,77.19
2019-05-10T20:50:07.116Z,77.55
2019-05-10T20:54:15.124Z,77.63
2019-05-10T20:58:22.801Z,78.00
2019-05-10T21:02:30.925Z,77.90
2019-05-10T21:06:38.743Z,77.43
2019-05-10T21:10:46.459Z,77.33
2019-05-10T21:14:54.359Z,77.45
2019-05-10T21:19:02.067Z,77.70
2019-05-10T21:23:09.977Z,77.86
2019-05-10T21:27:18.508Z,77.68
2019-05-10T21:31:26.341Z,77.91
2019-05-10T21:35:35.500Z,78.25
2019-05-10T21:39:43.681Z,78.79
2019-05-10T21:43:51.489Z,79.12
2019-05-10T21:47:59.633Z,79.26
2019-05-10T21:52:07.735Z,79.89
2019-05-10T21:56:15.104Z,79.92
2019-05-10T22:00:26.775Z,79.67
2019-05-10T22:04:36.909Z,79.40
2019-05-10T22:08:49.259Z,79.16
2019-05-10T22:12:54.162Z,79.56
2019-05-10T22:17:01.966Z,79.99
2019-05-10T22:21:10.276Z,80.64
2019-05-10T22:25:18.602Z,80.83
2019-05-10T22:29:26.294Z,80.41
2019-05-10T22:33:34.632Z,79.99
2019-05-10T22:37:42.729Z,79.89
2019-05-10T22:41:53.033Z,79.67
2019-05-10T22:46:01.290Z,79.27
2019-05-10T22:50:10.172Z,78.80
2019-05-10T22:54:17.977Z,79.62
2019-05-10T22:58:25.987Z,80.13
2019-05-10T23:02:34.646Z,80.49
2019-05-10T23:06:42.243Z,79.88
2019-05-10T23:10:50.445Z,79.77
2019-05-10T23:14:58.163Z,79.42
2019-05-10T23:19:06.481Z,80.17
2019-05-10T23:23:14.714Z,80.54
2019-05-10T23:27:22.820Z,81.36
2019-05-10T23:31:35.323Z,81.04
2019-05-10T23:35:41.423Z,80.85
2019-05-10T23:39:49.226Z,81.33
2019-05-10T23:43:57.467Z,81.23
2019-05-10T23:48:05.091Z,81.29
2019-05-10T23:52:13.400Z,80.83
2019-05-10T23:56:21.600Z,79.95
